createdAt,value
2023-04-23T00:01:02.294Z,94883.75
2023-04-23T00:02:06.395Z,94879.25
2023-04-23T00:03:10.214Z,94881.63
2023-04-23T00:04:12.379Z,94876.59
2023-04-23T00:05:14.081Z,94882.97
2023-04-23T00:06:17.669Z,94879.50
2023-04-23T00:07:20.024Z,94879.78
2023-04-23T00:08:22.541Z,94884.00
2023-04-23T00:09:24.492Z,94878.97
2023-04-23T00:10:27.062Z,94885.31
2023-04-23T00:11:28.613Z,94883.22
2023-04-23T00:12:30.353Z,94885.28
2023-04-23T00:13:32.279Z,94876.03
2023-04-23T00:14:33.868Z,94883.19
2023-04-23T00:15:35.597Z,94879.47
2023-04-23T00:16:37.507Z,94871.53
2023-04-23T00:17:39.057Z,94871.00
2023-04-23T00:18:40.721Z,94877.38
2023-04-23T00:19:42.237Z,94871.00
2023-04-23T00:20:43.795Z,94878.44
2023-04-23T00:21:45.570Z,94884.78
2023-04-23T00:22:47.167Z,94880.84
2023-04-23T00:23:48.786Z,94872.59
2023-04-23T00:24:50.372Z,94885.31
2023-04-23T00:25:51.923Z,94879.75
2023-04-23T00:26:53.665Z,94876.84
2023-04-23T00:27:55.231Z,94876.59
2023-04-23T00:28:56.746Z,94878.44
2023-04-23T00:29:58.178Z,94874.47
2023-04-23T00:30:59.771Z,94876.59
2023-04-23T00:32:04.316Z,94880.00
2023-04-23T00:33:08.423Z,94877.88
2023-04-23T00:34:10.040Z,94884.44
2023-04-23T00:35:11.634Z,94877.81
2023-04-23T00:36:13.251Z,94876.56
2023-04-23T00:37:15.046Z,94885.75
2023-04-23T00:39:18.390Z,94884.22
2023-04-23T00:40:20.777Z,94878.94
2023-04-23T00:41:22.874Z,94880.50
2023-04-23T00:42:24.523Z,94874.69
2023-04-23T00:43:26.702Z,94877.09
2023-04-23T00:44:28.286Z,94881.06
2023-04-23T00:45:29.803Z,94881.03
2023-04-23T00:46:33.803Z,94881.53
2023-04-23T00:47:35.970Z,94884.44
2023-04-23T00:48:37.753Z,94887.88
2023-04-23T00:49:39.461Z,94881.84
2023-04-23T00:50:41.587Z,94886.31
2023-04-23T00:51:45.641Z,94891.56
2023-04-23T00:52:47.122Z,94889.72
2023-04-23T00:53:49.318Z,94883.91
2023-04-23T00:54:53.174Z,94892.97
2023-04-23T00:55:54.816Z,94893.13
2023-04-23T00:56:58.077Z,94890.22
2023-04-23T00:58:00.745Z,94888.91
2023-04-23T00:59:03.385Z,94888.88
2023-04-23T01:00:05.939Z,94886.78
2023-04-23T01:01:07.763Z,94883.09
2023-04-23T01:02:09.473Z,94877.81
2023-04-23T01:03:11.397Z,94882.28
2023-04-23T01:04:14.833Z,94880.97
2023-04-23T01:05:19.857Z,94876.72
2023-04-23T01:06:21.589Z,94879.38
2023-04-23T01:07:23.581Z,94879.63
2023-04-23T01:08:26.095Z,94872.28
2023-04-23T01:09:27.944Z,94870.44
2023-04-23T01:10:32.574Z,94869.34
2023-04-23T01:11:34.196Z,94872.28
2023-04-23T01:12:35.708Z,94867.81
2023-04-23T01:13:37.258Z,94863.31
2023-04-23T01:14:39.145Z,94856.16
2023-04-23T01:15:41.100Z,94861.94
2023-04-23T01:16:42.608Z,94863.53
2023-04-23T01:17:44.284Z,94867.72
2023-04-23T01:18:48.330Z,94867.72
2023-04-23T01:19:49.881Z,94865.63
2023-04-23T01:20:51.634Z,94870.47
2023-04-23T01:21:53.542Z,94867.94
2023-04-23T01:22:55.096Z,94866.47
2023-04-23T01:23:58.998Z,94867.25
2023-04-23T01:25:01.050Z,94856.69
2023-04-23T01:26:03.081Z,94863.31
2023-04-23T01:27:04.659Z,94863.06
2023-04-23T01:28:09.378Z,94868.88
2023-04-23T01:29:13.974Z,94866.25
2023-04-23T01:30:15.816Z,94867.06
2023-04-23T01:31:17.454Z,94867.59
2023-04-23T01:32:19.368Z,94859.38
2023-04-23T01:33:21.231Z,94863.63
2023-04-23T01:34:22.708Z,94864.16
2023-04-23T01:35:27.308Z,94867.31
2023-04-23T01:36:29.512Z,94869.97
2023-04-23T01:37:34.023Z,94866.53
2023-04-23T01:38:38.863Z,94862.56
2023-04-23T01:39:40.463Z,94865.22
2023-04-23T01:40:42.319Z,94871.31
2023-04-23T01:41:43.910Z,94876.09
2023-04-23T01:42:46.153Z,94866.84
2023-04-23T01:43:47.904Z,94864.72
2023-04-23T01:44:52.287Z,94872.66
2023-04-23T01:45:56.278Z,94869.22
2023-04-23T01:46:58.197Z,94874.25
2023-04-23T01:48:00.104Z,94869.22
2023-04-23T01:49:01.739Z,94870.56
2023-04-23T01:50:05.144Z,94873.72
2023-04-23T01:51:06.739Z,94873.19
2023-04-23T01:52:08.321Z,94873.19
2023-04-23T01:53:15.523Z,94864.44
2023-04-23T01:54:16.979Z,94868.66
2023-04-23T01:55:20.914Z,94867.31
2023-04-23T01:56:25.343Z,94865.75
2023-04-23T01:57:29.151Z,94858.31
2023-04-23T01:58:30.786Z,94871.28
2023-04-23T01:59:32.459Z,94862.84
2023-04-23T02:00:34.021Z,94862.00
2023-04-23T02:01:47.301Z,94860.19
2023-04-23T02:02:49.025Z,94866.00
2023-04-23T02:03:51.262Z,94869.44
2023-04-23T02:04:53.890Z,94871.56
2023-04-23T02:05:55.734Z,94864.16
2023-04-23T02:06:57.358Z,94862.56
2023-04-23T02:07:59.021Z,94867.09
2023-04-23T02:09:00.596Z,94862.56
2023-04-23T02:10:02.511Z,94869.44
2023-04-23T02:11:05.276Z,94868.41
2023-04-23T02:12:07.019Z,94866.28
2023-04-23T02:13:08.868Z,94870.78
2023-04-23T02:14:10.847Z,94865.50
2023-04-23T02:15:12.882Z,94863.38
2023-04-23T02:16:17.016Z,94871.31
2023-04-23T02:17:19.713Z,94862.03
2023-04-23T02:18:21.225Z,94867.91
2023-04-23T02:19:22.742Z,94867.31
2023-04-23T02:20:25.264Z,94869.44
2023-04-23T02:21:27.479Z,94866.03
2023-04-23T02:22:29.175Z,94867.06
2023-04-23T02:23:30.771Z,94872.91
2023-04-23T02:24:32.275Z,94866.28
2023-04-23T02:25:34.272Z,94867.63
2023-04-23T02:26:35.825Z,94870.03
2023-04-23T02:27:37.433Z,94863.38
2023-04-23T02:28:41.335Z,94866.00
2023-04-23T02:29:42.927Z,94866.47
2023-04-23T02:30:47.799Z,94869.69
2023-04-23T02:31:49.410Z,94863.06
2023-04-23T02:32:53.699Z,94868.09
2023-04-23T02:33:55.369Z,94863.34
2023-04-23T02:34:59.749Z,94858.31
2023-04-23T02:36:01.783Z,94863.31
2023-04-23T02:37:05.038Z,94861.94
2023-04-23T02:38:08.448Z,94865.19
2023-04-23T02:39:10.005Z,94868.09
2023-04-23T02:40:11.902Z,94859.13
2023-04-23T02:41:13.432Z,94856.72
2023-04-23T02:42:14.991Z,94853.00
2023-04-23T02:43:18.165Z,94856.47
2023-04-23T02:44:19.919Z,94855.66
2023-04-23T02:45:24.586Z,94859.88
2023-04-23T02:46:26.170Z,94853.75
2023-04-23T02:47:27.817Z,94856.66
2023-04-23T02:48:29.794Z,94857.75
2023-04-23T02:49:31.461Z,94860.69
2023-04-23T02:50:32.978Z,94856.97
2023-04-23T02:51:34.513Z,94850.88
2023-04-23T02:52:36.692Z,94851.69
2023-04-23T02:53:38.404Z,94854.59
2023-04-23T02:54:40.250Z,94853.53
2023-04-23T02:55:41.918Z,94847.47
2023-04-23T02:56:43.504Z,94846.69
2023-04-23T02:57:45.607Z,94857.78
2023-04-23T02:58:47.274Z,94859.88
2023-04-23T02:59:50.270Z,94853.00
2023-04-23T03:00:59.069Z,94854.34
2023-04-23T03:02:00.699Z,94858.03
2023-04-23T03:03:02.438Z,94858.81
2023-04-23T03:04:04.585Z,94853.53
2023-04-23T03:05:07.471Z,94854.06
2023-04-23T03:06:09.007Z,94847.66
2023-04-23T03:07:10.812Z,94851.38
2023-04-23T03:08:12.317Z,94848.75
2023-04-23T03:09:13.792Z,94849.28
2023-04-23T03:10:15.492Z,94846.06
2023-04-23T03:11:17.106Z,94843.91
2023-04-23T03:12:18.789Z,94846.03
2023-04-23T03:13:20.398Z,94842.34
2023-04-23T03:14:22.615Z,94847.13
2023-04-23T03:15:24.379Z,94843.69
2023-04-23T03:16:28.211Z,94848.72
2023-04-23T03:17:29.833Z,94845.59
2023-04-23T03:18:31.492Z,94854.56
2023-04-23T03:19:33.424Z,94854.53
2023-04-23T03:20:35.728Z,94848.41
2023-04-23T03:21:37.340Z,94858.00
2023-04-23T03:22:41.257Z,94852.41
2023-04-23T03:23:43.047Z,94848.47
2023-04-23T03:24:44.823Z,94850.09
2023-04-23T03:25:46.369Z,94850.28
2023-04-23T03:26:48.303Z,94852.19
2023-04-23T03:27:50.262Z,94846.38
2023-04-23T03:28:51.858Z,94854.56
2023-04-23T03:29:53.627Z,94844.00
2023-04-23T03:30:55.396Z,94847.66
2023-04-23T03:31:56.952Z,94843.16
2023-04-23T03:33:02.336Z,94834.44
2023-04-23T03:34:06.196Z,94846.06
2023-04-23T03:35:12.095Z,94832.06
2023-04-23T03:36:18.171Z,94834.72
2023-04-23T03:37:19.787Z,94833.41
2023-04-23T03:38:21.398Z,94832.34
2023-04-23T03:39:24.253Z,94835.00
2023-04-23T03:40:28.790Z,94830.78
2023-04-23T03:41:33.960Z,94832.88
2023-04-23T03:42:36.828Z,94834.50
2023-04-23T03:43:38.644Z,94834.47
2023-04-23T03:44:52.260Z,94833.19
2023-04-23T03:45:53.881Z,94837.94
2023-04-23T03:46:55.800Z,94839.78
2023-04-23T03:47:57.388Z,94831.28
2023-04-23T03:48:58.967Z,94842.69
2023-04-23T03:50:02.082Z,94839.00
2023-04-23T03:51:04.381Z,94837.13
2023-04-23T03:52:11.256Z,94835.53
2023-04-23T03:53:14.083Z,94835.00
2023-04-23T03:54:47.729Z,94832.88
2023-04-23T03:55:52.947Z,94836.88
2023-04-23T03:56:54.849Z,94828.13
2023-04-23T03:58:01.743Z,94829.16
2023-04-23T03:59:11.445Z,94828.66
2023-04-23T04:00:13.257Z,94827.06
2023-04-23T04:01:14.736Z,94828.13
2023-04-23T04:02:16.434Z,94821.78
2023-04-23T04:03:18.474Z,94831.25
2023-04-23T04:04:20.449Z,94827.84
2023-04-23T04:05:24.058Z,94830.47
2023-04-23T04:06:28.181Z,94834.97
2023-04-23T04:07:30.659Z,94829.13
2023-04-23T04:08:32.117Z,94836.53
2023-04-23T04:09:35.061Z,94832.31
2023-04-23T04:10:38.694Z,94832.84
2023-04-23T04:11:41.106Z,94828.59
2023-04-23T04:12:45.584Z,94824.34
2023-04-23T04:13:47.098Z,94834.38
2023-04-23T04:14:48.645Z,94830.34
2023-04-23T04:15:50.560Z,94831.19
2023-04-23T04:16:52.128Z,94830.09
2023-04-23T04:17:53.716Z,94829.81
2023-04-23T04:18:56.631Z,94829.31
2023-04-23T04:20:00.724Z,94822.19
2023-04-23T04:21:02.281Z,94824.03
2023-04-23T04:22:03.888Z,94833.25
2023-04-23T04:23:05.434Z,94834.03
2023-04-23T04:24:06.911Z,94827.44
2023-04-23T04:25:08.590Z,94828.22
2023-04-23T04:26:13.056Z,94831.13
2023-04-23T04:27:16.863Z,94827.38
2023-04-23T04:28:18.470Z,94821.03
2023-04-23T04:29:21.379Z,94830.28
2023-04-23T04:32:31.939Z,94823.41
2023-04-23T04:33:35.982Z,94834.50
2023-04-23T04:34:38.342Z,94830.50
2023-04-23T04:35:40.038Z,94824.19
2023-04-23T04:36:42.313Z,94825.78
2023-04-23T04:37:46.302Z,94832.66
2023-04-23T04:38:47.852Z,94825.78
2023-04-23T04:39:49.530Z,94826.81
2023-04-23T04:40:50.969Z,94828.41
2023-04-23T04:41:53.284Z,94829.44
2023-04-23T04:42:55.126Z,94826.81
2023-04-23T04:43:56.759Z,94825.50
2023-04-23T04:45:01.155Z,94832.09
2023-04-23T04:46:03.463Z,94832.63
2023-04-23T04:47:08.042Z,94834.75
2023-04-23T04:48:09.902Z,94843.47
2023-04-23T04:49:12.298Z,94843.22
2023-04-23T04:50:13.810Z,94843.50
2023-04-23T04:51:15.847Z,94839.53
2023-04-23T04:52:17.638Z,94838.22
2023-04-23T04:53:19.200Z,94832.69
2023-04-23T04:54:21.840Z,94838.50
2023-04-23T04:55:23.382Z,94827.16
2023-04-23T04:56:27.236Z,94832.44
2023-04-23T04:57:28.902Z,94826.34
2023-04-23T04:58:32.792Z,94831.34
2023-04-23T04:59:34.279Z,94828.97
2023-04-23T05:00:35.848Z,94835.84
2023-04-23T05:01:37.897Z,94834.78
2023-04-23T05:02:39.643Z,94836.91
2023-04-23T05:03:41.501Z,94842.72
2023-04-23T05:04:43.432Z,94837.16
2023-04-23T05:05:50.671Z,94832.13
2023-04-23T05:06:52.273Z,94830.56
2023-04-23T05:07:54.409Z,94830.56
2023-04-23T05:08:55.964Z,94831.91
2023-04-23T05:09:57.548Z,94835.38
2023-04-23T05:11:00.775Z,94833.78
2023-04-23T05:12:02.324Z,94830.88
2023-04-23T05:13:04.145Z,94830.31
2023-04-23T05:14:05.754Z,94832.97
2023-04-23T05:15:13.114Z,94835.38
2023-04-23T05:16:14.778Z,94829.28
2023-04-23T05:17:18.838Z,94829.81
2023-04-23T05:18:21.083Z,94830.09
2023-04-23T05:19:22.713Z,94833.81
2023-04-23T05:20:24.206Z,94834.84
2023-04-23T05:21:27.583Z,94832.75
2023-04-23T05:22:29.357Z,94839.34
2023-04-23T05:23:30.907Z,94830.38
2023-04-23T05:24:32.499Z,94832.78
2023-04-23T05:25:35.612Z,94821.66
2023-04-23T05:26:37.278Z,94830.38
2023-04-23T05:27:41.349Z,94825.06
2023-04-23T05:28:42.981Z,94822.72
2023-04-23T05:29:44.522Z,94827.19
2023-04-23T05:30:48.144Z,94823.78
2023-04-23T05:31:52.107Z,94823.75
2023-04-23T05:32:53.650Z,94826.66
2023-04-23T05:33:55.265Z,94829.53
2023-04-23T05:36:06.630Z,94828.53
2023-04-23T05:37:11.017Z,94836.22
2023-04-23T05:38:12.609Z,94829.38
2023-04-23T05:39:14.157Z,94821.97
2023-04-23T05:40:18.321Z,94821.97
2023-04-23T05:41:20.017Z,94825.94
2023-04-23T05:42:21.923Z,94829.94
2023-04-23T05:43:23.557Z,94830.19
2023-04-23T05:44:25.271Z,94822.81
2023-04-23T05:45:26.989Z,94830.44
2023-04-23T05:46:28.778Z,94830.25
2023-04-23T05:47:49.074Z,94821.53
2023-04-23T05:49:09.208Z,94828.13
2023-04-23T05:50:29.578Z,94825.50
2023-04-23T05:51:51.839Z,94827.38
2023-04-23T05:53:14.646Z,94827.09
2023-04-23T05:54:36.608Z,94824.97
2023-04-23T05:55:58.730Z,94824.44
2023-04-23T05:57:20.763Z,94826.03
2023-04-23T05:58:42.869Z,94827.09
2023-04-23T06:00:09.584Z,94824.47
2023-04-23T06:01:37.010Z,94816.25
2023-04-23T06:03:01.190Z,94818.13
2023-04-23T06:04:23.761Z,94816.81
2023-04-23T06:05:45.995Z,94817.88
2023-04-23T06:07:10.618Z,94815.50
2023-04-23T06:08:32.501Z,94811.28
2023-04-23T06:09:54.560Z,94810.75
2023-04-23T06:11:16.775Z,94807.03
2023-04-23T06:12:39.903Z,94803.06
2023-04-23T06:14:03.033Z,94796.97
2023-04-23T06:15:27.250Z,94795.38
2023-04-23T06:16:49.261Z,94794.84
2023-04-23T06:18:11.289Z,94794.59
2023-04-23T06:19:33.253Z,94797.25
2023-04-23T06:20:56.963Z,94806.50
2023-04-23T06:22:18.942Z,94795.88
2023-04-23T06:23:43.556Z,94797.50
2023-04-23T06:25:08.553Z,94791.94
2023-04-23T06:26:32.169Z,94794.03
2023-04-23T06:27:59.927Z,94793.25
2023-04-23T06:29:25.479Z,94794.28
2023-04-23T06:30:58.524Z,94786.06
2023-04-23T06:32:21.842Z,94788.44
2023-04-23T06:33:43.777Z,94786.81
2023-04-23T06:35:09.394Z,94786.03
2023-04-23T06:36:32.291Z,94788.34
2023-04-23T06:37:54.382Z,94771.38
2023-04-23T06:39:16.444Z,94774.81
2023-04-23T06:40:38.533Z,94775.59
2023-04-23T06:42:00.451Z,94777.50
2023-04-23T06:43:43.459Z,94769.78
2023-04-23T06:45:25.692Z,94770.56
2023-04-23T06:46:47.842Z,94763.94
2023-04-23T06:48:09.816Z,94767.13
2023-04-23T06:49:31.968Z,94765.53
2023-04-23T06:50:53.948Z,94754.94
2023-04-23T06:52:15.932Z,94753.56
2023-04-23T06:53:40.485Z,94747.19
2023-04-23T06:55:02.564Z,94748.28
2023-04-23T06:56:27.487Z,94752.78
2023-04-23T06:57:49.503Z,94749.59
2023-04-23T06:58:51.161Z,94747.97
2023-04-23T06:59:55.737Z,94745.56
2023-04-23T07:01:01.539Z,94744.75
2023-04-23T07:02:05.476Z,94739.44
2023-04-23T07:03:07.312Z,94750.13
2023-04-23T07:04:11.546Z,94749.25
2023-04-23T07:05:13.261Z,94746.34
2023-04-23T07:06:34.684Z,94744.19
2023-04-23T07:07:55.290Z,94746.84
2023-04-23T07:09:15.587Z,94746.53
2023-04-23T07:10:37.645Z,94744.41
2023-04-23T07:11:59.521Z,94740.69
2023-04-23T07:13:24.029Z,94740.41
2023-04-23T07:14:46.092Z,94745.47
2023-04-23T07:16:08.164Z,94741.50
2023-04-23T07:17:31.024Z,94744.63
2023-04-23T07:18:53.407Z,94741.69
2023-04-23T07:20:15.429Z,94728.09
2023-04-23T07:21:40.269Z,94737.63
2023-04-23T07:23:04.029Z,94725.09
2023-04-23T07:24:26.794Z,94733.84
2023-04-23T07:25:48.860Z,94738.31
2023-04-23T07:27:11.027Z,94730.06
2023-04-23T07:28:35.346Z,94736.47
2023-04-23T07:29:59.624Z,94724.97
2023-04-23T07:31:22.320Z,94726.31
2023-04-23T07:32:44.348Z,94725.41
2023-04-23T07:34:09.877Z,94724.59
2023-04-23T07:35:31.841Z,94728.00
2023-04-23T07:36:55.462Z,94729.84
2023-04-23T07:38:17.471Z,94723.94
2023-04-23T07:39:41.115Z,94726.03
2023-04-23T07:41:04.620Z,94714.28
2023-04-23T07:42:26.661Z,94716.94
2023-04-23T07:43:48.781Z,94707.38
2023-04-23T07:44:55.299Z,94715.94
2023-04-23T07:45:56.874Z,94711.50
2023-04-23T07:46:58.509Z,94713.88
2023-04-23T07:48:02.621Z,94715.19
2023-04-23T07:49:04.645Z,94722.53
2023-04-23T07:50:10.236Z,94708.69
2023-04-23T07:51:12.508Z,94709.19
2023-04-23T07:52:15.484Z,94716.03
2023-04-23T07:53:17.242Z,94708.00
2023-04-23T07:54:18.731Z,94709.81
2023-04-23T07:55:21.704Z,94705.16
2023-04-23T07:56:24.561Z,94710.13
2023-04-23T07:57:26.285Z,94707.19
2023-04-23T07:58:27.928Z,94709.69
2023-04-23T07:59:29.750Z,94706.06
2023-04-23T08:00:34.433Z,94712.22
2023-04-23T08:01:36.172Z,94706.53
2023-04-23T08:02:38.082Z,94709.00
2023-04-23T08:03:39.990Z,94707.91
2023-04-23T08:04:42.031Z,94703.69
2023-04-23T08:05:43.919Z,94700.97
2023-04-23T08:06:45.462Z,94694.50
2023-04-23T08:07:46.991Z,94696.78
2023-04-23T08:08:51.034Z,94686.59
2023-04-23T08:09:52.680Z,94692.91
2023-04-23T08:10:57.058Z,94686.53
2023-04-23T08:11:58.784Z,94691.56
2023-04-23T08:13:00.571Z,94692.47
2023-04-23T08:14:02.323Z,94691.19
2023-04-23T08:15:04.597Z,94694.78
2023-04-23T08:16:12.163Z,94700.06
2023-04-23T08:17:13.784Z,94696.34
2023-04-23T08:18:15.512Z,94702.50
2023-04-23T08:19:17.155Z,94697.28
2023-04-23T08:20:18.782Z,94701.09
2023-04-23T08:21:20.764Z,94707.63
2023-04-23T08:22:22.441Z,94698.78
2023-04-23T08:23:24.165Z,94695.84
2023-04-23T08:24:27.071Z,94702.38
2023-04-23T08:25:28.660Z,94703.94
2023-04-23T08:26:31.423Z,94700.00
2023-04-23T08:27:33.132Z,94705.03
2023-04-23T08:28:37.036Z,94708.50
2023-04-23T08:29:38.646Z,94710.56
2023-04-23T08:30:40.246Z,94705.41
2023-04-23T08:31:44.380Z,94707.13
2023-04-23T08:32:49.851Z,94704.38
2023-04-23T08:33:51.737Z,94710.19
2023-04-23T08:34:53.316Z,94703.16
2023-04-23T08:35:55.048Z,94709.38
2023-04-23T08:36:56.820Z,94701.31
2023-04-23T08:37:58.348Z,94705.19
2023-04-23T08:39:00.856Z,94706.06
2023-04-23T08:40:04.032Z,94701.75
2023-04-23T08:41:06.623Z,94701.75
2023-04-23T08:42:27.008Z,94692.34
2023-04-23T08:43:37.795Z,94690.59
2023-04-23T08:44:42.892Z,94687.72
2023-04-23T08:45:49.614Z,94687.72
2023-04-23T08:46:53.824Z,94684.69
2023-04-23T08:48:02.207Z,94689.03
2023-04-23T08:49:08.472Z,94684.53
2023-04-23T08:50:12.622Z,94684.94
2023-04-23T08:51:19.126Z,94683.28
2023-04-23T08:52:24.297Z,94680.44
2023-04-23T08:53:29.652Z,94681.69
2023-04-23T08:54:34.732Z,94681.09
2023-04-23T08:55:36.699Z,94676.78
2023-04-23T08:56:39.222Z,94677.78
2023-04-23T08:57:44.078Z,94675.53
2023-04-23T08:58:47.018Z,94679.72
2023-04-23T08:59:54.216Z,94679.22
2023-04-23T09:00:58.094Z,94677.78
2023-04-23T09:02:08.332Z,94669.50
2023-04-23T09:03:10.653Z,94674.59
2023-04-23T09:04:16.966Z,94675.91
2023-04-23T09:05:18.554Z,94679.03
2023-04-23T09:06:20.593Z,94666.88
2023-04-23T09:07:24.610Z,94677.19
2023-04-23T09:08:26.346Z,94668.81
2023-04-23T09:09:29.554Z,94663.91
2023-04-23T09:10:31.590Z,94662.72
2023-04-23T09:11:34.617Z,94664.81
2023-04-23T09:12:36.773Z,94657.41
2023-04-23T09:13:41.386Z,94663.72
2023-04-23T09:14:43.246Z,94664.72
2023-04-23T09:15:47.711Z,94662.22
2023-04-23T09:16:50.650Z,94663.38
2023-04-23T09:17:52.418Z,94655.25
2023-04-23T09:18:59.634Z,94660.50
2023-04-23T09:20:01.527Z,94654.22
2023-04-23T09:21:04.443Z,94650.19
2023-04-23T09:22:07.772Z,94654.13
2023-04-23T09:23:13.657Z,94649.59
2023-04-23T09:24:16.331Z,94648.22
2023-04-23T09:25:23.194Z,94653.75
2023-04-23T09:26:24.756Z,94652.19
2023-04-23T09:27:26.808Z,94648.22
2023-04-23T09:28:38.173Z,94645.88
2023-04-23T09:29:40.103Z,94640.31
2023-04-23T09:30:46.081Z,94643.84
2023-04-23T09:31:52.022Z,94645.00
2023-04-23T09:32:53.960Z,94640.69
2023-04-23T09:33:55.688Z,94641.84
2023-04-23T09:34:57.611Z,94639.94
2023-04-23T09:35:59.155Z,94634.84
2023-04-23T09:37:07.875Z,94634.53
2023-04-23T09:38:10.658Z,94636.91
2023-04-23T09:39:15.746Z,94640.44
2023-04-23T09:40:20.050Z,94632.94
2023-04-23T09:41:25.828Z,94637.50
2023-04-23T09:42:28.531Z,94633.44
2023-04-23T09:43:35.039Z,94633.94
2023-04-23T09:44:38.208Z,94637.91
2023-04-23T09:45:50.043Z,94633.75
2023-04-23T09:46:51.851Z,94628.34
2023-04-23T09:47:55.057Z,94637.69
2023-04-23T09:49:01.408Z,94633.38
2023-04-23T09:50:05.757Z,94632.78
2023-04-23T09:51:07.653Z,94632.00
2023-04-23T09:52:11.508Z,94632.63
2023-04-23T09:53:14.282Z,94627.31
2023-04-23T09:54:19.116Z,94628.31
2023-04-23T09:55:35.208Z,94622.03
2023-04-23T09:56:36.998Z,94621.41
2023-04-23T09:57:43.003Z,94623.94
2023-04-23T09:58:45.615Z,94619.03
2023-04-23T09:59:52.941Z,94626.44
2023-04-23T10:01:08.052Z,94612.72
2023-04-23T10:02:11.338Z,94617.88
2023-04-23T10:03:15.778Z,94618.06
2023-04-23T10:04:27.430Z,94617.06
2023-04-23T10:05:45.408Z,94615.19
2023-04-23T10:07:13.736Z,94618.06
2023-04-23T10:08:19.659Z,94623.28
2023-04-23T10:09:24.512Z,94628.34
2023-04-23T10:10:26.435Z,94617.88
2023-04-23T10:11:28.306Z,94616.09
2023-04-23T10:12:46.699Z,94623.00
2023-04-23T10:13:53.657Z,94615.69
2023-04-23T10:14:57.440Z,94609.69
2023-04-23T10:16:13.972Z,94611.66
2023-04-23T10:17:22.800Z,94610.31
2023-04-23T10:18:24.790Z,94612.19
2023-04-23T10:19:29.874Z,94606.25
2023-04-23T10:20:31.985Z,94607.16
2023-04-23T10:21:46.295Z,94607.81
2023-04-23T10:22:57.491Z,94614.72
2023-04-23T10:24:02.273Z,94610.47
2023-04-23T10:25:11.473Z,94611.03
2023-04-23T10:26:16.139Z,94611.34
2023-04-23T10:27:28.542Z,94613.88
2023-04-23T10:28:36.088Z,94609.13
2023-04-23T10:29:41.444Z,94605.03
2023-04-23T10:30:44.581Z,94602.44
2023-04-23T10:31:46.448Z,94601.34
2023-04-23T10:32:49.793Z,94602.31
2023-04-23T10:33:59.319Z,94596.97
2023-04-23T10:35:03.737Z,94603.16
2023-04-23T10:36:06.141Z,94587.31
2023-04-23T10:37:11.403Z,94594.00
2023-04-23T10:38:14.387Z,94596.38
2023-04-23T10:39:24.018Z,94595.53
2023-04-23T10:40:34.061Z,94598.19
2023-04-23T10:41:44.018Z,94590.66
2023-04-23T10:42:46.533Z,94599.75
2023-04-23T10:43:48.280Z,94597.03
2023-04-23T10:44:59.572Z,94590.72
2023-04-23T10:46:32.112Z,94593.63
2023-04-23T10:47:33.845Z,94597.06
2023-04-23T10:49:08.181Z,94594.75
2023-04-23T10:50:24.926Z,94598.66
2023-04-23T10:52:14.573Z,94595.50
2023-04-23T10:52:57.650Z,94596.66
2023-04-23T10:53:59.909Z,94600.59
2023-04-23T10:55:01.543Z,94592.97
2023-04-23T10:56:07.922Z,94587.38
2023-04-23T10:57:11.087Z,94588.59
2023-04-23T10:58:14.807Z,94588.81
2023-04-23T10:59:20.524Z,94582.50
2023-04-23T11:00:22.346Z,94582.72
2023-04-23T11:01:25.784Z,94577.53
2023-04-23T11:02:43.907Z,94570.84
2023-04-23T11:03:46.002Z,94579.41
2023-04-23T11:04:57.163Z,94574.09
2023-04-23T11:06:03.442Z,94576.63
2023-04-23T11:07:09.322Z,94574.25
2023-04-23T11:08:19.401Z,94568.41
2023-04-23T11:09:36.411Z,94566.25
2023-04-23T11:10:57.986Z,94568.53
2023-04-23T11:12:05.827Z,94567.31
2023-04-23T11:13:29.593Z,94568.41
2023-04-23T11:14:43.326Z,94567.34
2023-04-23T11:15:46.935Z,94563.31
2023-04-23T11:16:48.946Z,94564.09
2023-04-23T11:17:59.435Z,94559.84
2023-04-23T11:19:18.340Z,94564.41
2023-04-23T11:20:23.975Z,94559.19
2023-04-23T11:21:59.598Z,94560.75
2023-04-23T11:23:01.323Z,94561.38
2023-04-23T11:24:03.028Z,94553.63
2023-04-23T11:25:08.730Z,94555.94
2023-04-23T11:26:10.458Z,94554.88
2023-04-23T11:27:13.151Z,94559.69
2023-04-23T11:28:16.240Z,94553.78
2023-04-23T11:29:21.294Z,94555.03
2023-04-23T11:30:24.916Z,94559.59
2023-04-23T11:31:26.840Z,94552.22
2023-04-23T11:32:28.626Z,94559.00
2023-04-23T11:33:30.125Z,94548.59
2023-04-23T11:34:33.890Z,94543.72
2023-04-23T11:35:41.451Z,94550.06
2023-04-23T11:36:46.578Z,94544.59
2023-04-23T11:37:48.829Z,94543.78
2023-04-23T11:38:56.268Z,94546.47
2023-04-23T11:40:08.650Z,94539.34
2023-04-23T11:41:10.273Z,94535.59
2023-04-23T11:42:13.077Z,94537.78
2023-04-23T11:43:19.540Z,94537.19
2023-04-23T11:44:23.234Z,94537.19
2023-04-23T11:45:26.354Z,94534.50
2023-04-23T11:46:28.092Z,94538.00
2023-04-23T11:47:30.289Z,94536.22
2023-04-23T11:48:34.080Z,94538.16
2023-04-23T11:49:38.106Z,94527.25
2023-04-23T11:50:41.898Z,94536.25
2023-04-23T11:51:46.345Z,94529.00
2023-04-23T11:52:48.173Z,94530.72
2023-04-23T11:53:49.908Z,94528.19
2023-04-23T11:54:51.650Z,94531.22
2023-04-23T11:55:56.654Z,94529.47
2023-04-23T11:56:59.298Z,94530.41
2023-04-23T11:58:00.880Z,94535.78
2023-04-23T11:59:05.792Z,94530.25
2023-04-23T12:00:16.323Z,94520.63
2023-04-23T12:01:17.960Z,94528.38
2023-04-23T12:02:19.728Z,94523.97
2023-04-23T12:03:27.127Z,94520.00
2023-04-23T12:04:30.765Z,94517.50
2023-04-23T12:05:36.659Z,94510.41
2023-04-23T12:06:40.214Z,94513.41
2023-04-23T12:07:41.830Z,94515.28
2023-04-23T12:08:47.118Z,94513.22
2023-04-23T12:09:48.737Z,94521.56
2023-04-23T12:10:55.045Z,94519.22
2023-04-23T12:12:00.289Z,94513.97
2023-04-23T12:13:04.183Z,94514.28
2023-04-23T12:14:08.538Z,94512.53
2023-04-23T12:15:12.709Z,94513.28
2023-04-23T12:16:14.647Z,94508.25
2023-04-23T12:17:16.409Z,94506.50
2023-04-23T12:18:20.453Z,94501.13
2023-04-23T12:19:29.466Z,94496.22
2023-04-23T12:20:31.097Z,94495.06
2023-04-23T12:21:34.690Z,94491.28
2023-04-23T12:22:38.436Z,94489.97
2023-04-23T12:23:42.106Z,94491.47
2023-04-23T12:24:48.797Z,94495.41
2023-04-23T12:25:54.846Z,94493.97
2023-04-23T12:27:00.447Z,94499.13
2023-04-23T12:28:07.411Z,94497.09
2023-04-23T12:29:09.157Z,94491.53
2023-04-23T12:30:11.837Z,94489.69
2023-04-23T12:31:20.865Z,94482.78
2023-04-23T12:32:27.064Z,94487.09
2023-04-23T12:33:30.595Z,94492.47
2023-04-23T12:34:32.335Z,94493.31
2023-04-23T12:35:47.006Z,94489.41
2023-04-23T12:36:51.580Z,94490.97
2023-04-23T12:37:53.144Z,94489.53
2023-04-23T12:38:54.760Z,94490.16
2023-04-23T12:39:59.645Z,94495.25
2023-04-23T12:41:01.888Z,94499.69
2023-04-23T12:42:06.696Z,94495.13
2023-04-23T12:43:08.496Z,94497.63
2023-04-23T12:44:12.450Z,94500.84
2023-04-23T12:45:14.123Z,94505.56
2023-04-23T12:46:15.695Z,94499.13
2023-04-23T12:47:19.527Z,94493.50
2023-04-23T12:48:21.232Z,94492.66
2023-04-23T12:49:22.804Z,94488.88
2023-04-23T12:50:24.366Z,94487.13
2023-04-23T12:51:25.887Z,94482.25
2023-04-23T12:52:28.357Z,94488.53
2023-04-23T12:53:29.851Z,94481.56
2023-04-23T12:54:32.351Z,94481.91
2023-04-23T12:55:35.702Z,94479.69
2023-04-23T12:56:37.764Z,94486.16
2023-04-23T12:57:39.202Z,94482.38
2023-04-23T12:58:40.744Z,94493.09
2023-04-23T12:59:42.414Z,94487.75